Terminal Aerodrome Forecast
Issued by NWS

Home | Current Version | Previous Version | Graphics & Text | Print | Product List | Glossary On
Versions: 1 2 3 4 5 6 7 8 9 10 11 12
000
FTUS43 KMPX 201745
TAFRNH
TAF
KRNH 201745Z 2018/2118 29006KT P6SM OVC150
     FM210200 25004KT P6SM FEW150
     FM211700 29010G15KT P6SM FEW250=

USA.gov is the U.S. government's official web portal to all federal, state and local government web resources and services.